sensor_id;sensor_type;location;lat;lon;timestamp;pressure;altitude;pressure_sealevel;temperature;humidity
8320;BME280;4197;42.130;24.746;2022-08-02T00:02:19;99120.50;;;23.47;47.78
8320;BME280;4197;42.130;24.746;2022-08-02T00:04:47;99123.09;;;23.42;48.00
8320;BME280;4197;42.130;24.746;2022-08-02T00:07:16;99119.81;;;23.34;48.40
8320;BME280;4197;42.130;24.746;2022-08-02T00:09:44;99128.22;;;23.30;48.28
8320;BME280;4197;42.130;24.746;2022-08-02T00:12:12;99136.31;;;23.25;48.55
8320;BME280;4197;42.130;24.746;2022-08-02T00:14:42;99132.66;;;23.28;48.33
8320;BME280;4197;42.130;24.746;2022-08-02T00:17:10;99136.31;;;23.25;48.42
8320;BME280;4197;42.130;24.746;2022-08-02T00:19:38;99125.94;;;23.16;48.52
8320;BME280;4197;42.130;24.746;2022-08-02T00:22:07;99126.84;;;23.13;48.62
8320;BME280;4197;42.130;24.746;2022-08-02T00:24:35;99132.72;;;23.02;49.06
8320;BME280;4197;42.130;24.746;2022-08-02T00:27:03;99131.63;;;23.00;49.08
8320;BME280;4197;42.130;24.746;2022-08-02T00:29:35;99135.72;;;22.95;49.33
8320;BME280;4197;42.130;24.746;2022-08-02T00:32:20;99128.22;;;22.83;49.80
8320;BME280;4197;42.130;24.746;2022-08-02T00:34:49;99129.09;;;22.80;50.10
8320;BME280;4197;42.130;24.746;2022-08-02T00:37:18;99128.66;;;22.81;49.87
8320;BME280;4197;42.130;24.746;2022-08-02T00:39:46;99126.47;;;22.76;50.29
8320;BME280;4197;42.130;24.746;2022-08-02T00:42:14;99127.56;;;22.79;50.43
8320;BME280;4197;42.130;24.746;2022-08-02T00:44:43;99127.56;;;22.79;50.24
8320;BME280;4197;42.130;24.746;2022-08-02T00:47:11;99130.34;;;22.79;50.42
8320;BME280;4197;42.130;24.746;2022-08-02T00:49:46;99127.34;;;22.73;50.52
8320;BME280;4197;42.130;24.746;2022-08-02T00:52:14;99122.25;;;22.71;50.43
8320;BME280;4197;42.130;24.746;2022-08-02T00:54:42;99126.25;;;22.70;50.48
8320;BME280;4197;42.130;24.746;2022-08-02T00:57:11;99121.16;;;22.69;50.63
8320;BME280;4197;42.130;24.746;2022-08-02T00:59:39;99125.69;;;22.63;50.71
8320;BME280;4197;42.130;24.746;2022-08-02T01:02:08;99123.28;;;22.65;50.73
8320;BME280;4197;42.130;24.746;2022-08-02T01:04:37;99129.22;;;22.63;50.67
8320;BME280;4197;42.130;24.746;2022-08-02T01:07:07;99125.47;;;22.57;50.83
8320;BME280;4197;42.130;24.746;2022-08-02T01:09:40;99122.72;;;22.57;50.82
8320;BME280;4197;42.130;24.746;2022-08-02T01:12:09;99117.88;;;22.48;51.15
8320;BME280;4197;42.130;24.746;2022-08-02T01:14:39;99116.75;;;22.46;51.07
8320;BME280;4197;42.130;24.746;2022-08-02T01:17:13;99116.88;;;22.42;51.19
8320;BME280;4197;42.130;24.746;2022-08-02T01:19:50;99113.31;;;22.42;51.13
8320;BME280;4197;42.130;24.746;2022-08-02T01:22:44;99102.84;;;22.37;51.25
8320;BME280;4197;42.130;24.746;2022-08-02T01:28:36;99113.78;;;22.27;51.24
8320;BME280;4197;42.130;24.746;2022-08-02T01:31:11;99109.47;;;22.26;51.31
8320;BME280;4197;42.130;24.746;2022-08-02T01:33:46;99108.91;;;22.19;51.76
8320;BME280;4197;42.130;24.746;2022-08-02T01:36:17;99109.34;;;22.17;51.70
8320;BME280;4197;42.130;24.746;2022-08-02T01:38:48;99109.09;;;22.12;51.96
8320;BME280;4197;42.130;24.746;2022-08-02T01:41:20;99112.28;;;22.10;52.15
8320;BME280;4197;42.130;24.746;2022-08-02T01:43:54;99111.19;;;22.08;52.37
8320;BME280;4197;42.130;24.746;2022-08-02T01:46:24;99109.75;;;22.03;52.42
8320;BME280;4197;42.130;24.746;2022-08-02T01:48:55;99103.22;;;21.97;52.66
8320;BME280;4197;42.130;24.746;2022-08-02T01:51:26;99109.97;;;21.96;52.73
8320;BME280;4197;42.130;24.746;2022-08-02T01:54:14;99103.75;;;21.92;53.04
8320;BME280;4197;42.130;24.746;2022-08-02T01:56:44;99100.34;;;21.88;53.05
8320;BME280;4197;42.130;24.746;2022-08-02T01:59:20;99102.41;;;21.83;53.16
8320;BME280;4197;42.130;24.746;2022-08-02T02:01:50;99093.38;;;21.83;52.98
8320;BME280;4197;42.130;24.746;2022-08-02T02:04:21;99097.34;;;21.82;52.62
8320;BME280;4197;42.130;24.746;2022-08-02T02:06:51;99091.94;;;21.78;52.72
8320;BME280;4197;42.130;24.746;2022-08-02T02:09:25;99085.84;;;21.83;52.01
8320;BME280;4197;42.130;24.746;2022-08-02T02:11:55;99083.09;;;21.83;51.84
8320;BME280;4197;42.130;24.746;2022-08-02T02:14:41;99086.66;;;21.84;51.68
8320;BME280;4197;42.130;24.746;2022-08-02T02:17:19;99085.84;;;21.83;51.79
8320;BME280;4197;42.130;24.746;2022-08-02T02:20:12;99089.97;;;21.92;51.46
8320;BME280;4197;42.130;24.746;2022-08-02T02:22:42;99089.19;;;21.91;51.50
8320;BME280;4197;42.130;24.746;2022-08-02T02:25:15;99090.84;;;21.89;51.47
8320;BME280;4197;42.130;24.746;2022-08-02T02:28:02;99089.66;;;21.90;51.77
8320;BME280;4197;42.130;24.746;2022-08-02T02:30:32;99087.75;;;21.87;52.16
8320;BME280;4197;42.130;24.746;2022-08-02T02:33:05;99094.13;;;21.83;52.27
8320;BME280;4197;42.130;24.746;2022-08-02T02:35:36;99093.38;;;21.83;52.26
8320;BME280;4197;42.130;24.746;2022-08-02T02:38:08;99091.59;;;21.76;52.41
8320;BME280;4197;42.130;24.746;2022-08-02T02:40:39;99090.38;;;21.77;52.59
8320;BME280;4197;42.130;24.746;2022-08-02T02:43:09;99093.25;;;21.74;52.54
8320;BME280;4197;42.130;24.746;2022-08-02T02:45:42;99092.78;;;21.75;52.55
8320;BME280;4197;42.130;24.746;2022-08-02T02:48:12;99097.66;;;21.71;52.70
8320;BME280;4197;42.130;24.746;2022-08-02T02:50:41;99086.63;;;21.71;52.49
8320;BME280;4197;42.130;24.746;2022-08-02T02:53:10;99089.81;;;21.70;52.39
8320;BME280;4197;42.130;24.746;2022-08-02T02:55:41;99091.56;;;21.64;52.68
8320;BME280;4197;42.130;24.746;2022-08-02T02:58:29;99089.34;;;21.58;52.86
8320;BME280;4197;42.130;24.746;2022-08-02T03:00:59;99087.13;;;21.53;53.30
8320;BME280;4197;42.130;24.746;2022-08-02T03:03:45;99092.84;;;21.46;53.70
8320;BME280;4197;42.130;24.746;2022-08-02T03:06:14;99099.22;;;21.43;53.96
8320;BME280;4197;42.130;24.746;2022-08-02T03:08:42;99100.16;;;21.36;54.23
8320;BME280;4197;42.130;24.746;2022-08-02T03:11:12;99099.50;;;21.32;54.54
8320;BME280;4197;42.130;24.746;2022-08-02T03:13:41;99099.59;;;21.29;54.64
8320;BME280;4197;42.130;24.746;2022-08-02T03:16:11;99100.03;;;21.27;54.94
8320;BME280;4197;42.130;24.746;2022-08-02T03:18:41;99095.47;;;21.21;55.21
8320;BME280;4197;42.130;24.746;2022-08-02T03:21:11;99093.59;;;21.17;55.60
8320;BME280;4197;42.130;24.746;2022-08-02T03:23:41;99097.53;;;21.16;55.76
8320;BME280;4197;42.130;24.746;2022-08-02T03:26:09;99100.66;;;21.19;55.94
8320;BME280;4197;42.130;24.746;2022-08-02T03:28:38;99097.47;;;21.20;55.71
8320;BME280;4197;42.130;24.746;2022-08-02T03:31:06;99100.47;;;21.26;55.88
8320;BME280;4197;42.130;24.746;2022-08-02T03:33:36;99101.91;;;21.30;55.85
8320;BME280;4197;42.130;24.746;2022-08-02T03:36:07;99096.22;;;21.37;55.68
8320;BME280;4197;42.130;24.746;2022-08-02T03:38:38;99108.63;;;21.46;55.60
8320;BME280;4197;42.130;24.746;2022-08-02T03:41:10;99108.41;;;21.53;55.52
8320;BME280;4197;42.130;24.746;2022-08-02T03:43:39;99115.81;;;21.56;55.23
8320;BME280;4197;42.130;24.746;2022-08-02T03:46:09;99125.38;;;21.68;55.10
8320;BME280;4197;42.130;24.746;2022-08-02T03:48:41;99123.94;;;21.76;55.00
8320;BME280;4197;42.130;24.746;2022-08-02T03:51:10;99128.38;;;21.86;54.29
8320;BME280;4197;42.130;24.746;2022-08-02T03:53:39;99123.66;;;21.99;53.65
8320;BME280;4197;42.130;24.746;2022-08-02T03:56:08;99134.38;;;22.10;53.27
8320;BME280;4197;42.130;24.746;2022-08-02T03:58:37;99132.78;;;22.25;52.39
8320;BME280;4197;42.130;24.746;2022-08-02T04:01:05;99135.66;;;22.35;52.05
8320;BME280;4197;42.130;24.746;2022-08-02T04:03:33;99127.03;;;22.45;51.52
8320;BME280;4197;42.130;24.746;2022-08-02T04:06:03;99132.88;;;22.60;50.81
8320;BME280;4197;42.130;24.746;2022-08-02T04:08:31;99123.03;;;22.72;50.32
8320;BME280;4197;42.130;24.746;2022-08-02T04:11:04;99130.63;;;22.81;49.88
8320;BME280;4197;42.130;24.746;2022-08-02T04:13:50;99127.66;;;23.01;49.00
8320;BME280;4197;42.130;24.746;2022-08-02T04:16:26;99128.50;;;23.10;48.69
8320;BME280;4197;42.130;24.746;2022-08-02T04:18:59;99128.38;;;23.14;48.41
8320;BME280;4197;42.130;24.746;2022-08-02T04:21:33;99138.88;;;23.19;48.26
8320;BME280;4197;42.130;24.746;2022-08-02T04:24:19;99138.44;;;23.21;48.59
8320;BME280;4197;42.130;24.746;2022-08-02T04:26:52;99137.47;;;23.14;48.98
8320;BME280;4197;42.130;24.746;2022-08-02T04:29:33;99137.22;;;23.22;49.09
8320;BME280;4197;42.130;24.746;2022-08-02T04:32:02;99146.13;;;23.38;48.91
8320;BME280;4197;42.130;24.746;2022-08-02T04:34:32;99148.31;;;23.44;48.60
8320;BME280;4197;42.130;24.746;2022-08-02T04:37:02;99141.78;;;23.50;48.51
8320;BME280;4197;42.130;24.746;2022-08-02T04:39:30;99147.56;;;23.65;47.74
8320;BME280;4197;42.130;24.746;2022-08-02T04:41:59;99151.28;;;23.84;47.59
8320;BME280;4197;42.130;24.746;2022-08-02T04:44:27;99143.66;;;23.97;46.58
8320;BME280;4197;42.130;24.746;2022-08-02T04:46:55;99140.44;;;23.99;46.78
8320;BME280;4197;42.130;24.746;2022-08-02T04:49:27;99152.97;;;24.13;45.66
8320;BME280;4197;42.130;24.746;2022-08-02T04:51:55;99147.78;;;24.24;45.24
8320;BME280;4197;42.130;24.746;2022-08-02T04:54:25;99150.34;;;24.40;44.42
8320;BME280;4197;42.130;24.746;2022-08-02T04:56:54;99140.72;;;24.54;43.80
8320;BME280;4197;42.130;24.746;2022-08-02T04:59:22;99144.91;;;24.68;43.74
8320;BME280;4197;42.130;24.746;2022-08-02T05:01:50;99147.91;;;24.92;43.21
8320;BME280;4197;42.130;24.746;2022-08-02T05:04:19;99150.25;;;25.03;43.04
8320;BME280;4197;42.130;24.746;2022-08-02T05:06:47;99149.38;;;25.24;42.48
8320;BME280;4197;42.130;24.746;2022-08-02T05:09:16;99156.75;;;25.27;42.95
8320;BME280;4197;42.130;24.746;2022-08-02T05:11:47;99160.66;;;25.39;41.73
8320;BME280;4197;42.130;24.746;2022-08-02T05:14:20;99160.94;;;25.41;42.04
8320;BME280;4197;42.130;24.746;2022-08-02T05:16:49;99167.75;;;25.58;41.25
8320;BME280;4197;42.130;24.746;2022-08-02T05:19:18;99159.84;;;25.66;41.05
8320;BME280;4197;42.130;24.746;2022-08-02T05:21:47;99164.50;;;25.88;40.99
8320;BME280;4197;42.130;24.746;2022-08-02T05:24:15;99167.88;;;25.92;40.26
8320;BME280;4197;42.130;24.746;2022-08-02T05:26:43;99163.56;;;25.91;40.28
8320;BME280;4197;42.130;24.746;2022-08-02T05:29:13;99165.06;;;25.82;40.27
8320;BME280;4197;42.130;24.746;2022-08-02T05:31:42;99167.56;;;25.80;39.39
8320;BME280;4197;42.130;24.746;2022-08-02T05:34:12;99167.72;;;25.68;39.19
8320;BME280;4197;42.130;24.746;2022-08-02T05:36:40;99167.56;;;25.71;39.07
8320;BME280;4197;42.130;24.746;2022-08-02T05:39:08;99164.22;;;25.86;38.41
8320;BME280;4197;42.130;24.746;2022-08-02T05:41:45;99166.31;;;26.09;37.87
8320;BME280;4197;42.130;24.746;2022-08-02T05:44:14;99169.41;;;26.11;38.08
8320;BME280;4197;42.130;24.746;2022-08-02T05:46:43;99176.28;;;26.34;36.69
8320;BME280;4197;42.130;24.746;2022-08-02T05:49:13;99164.56;;;26.30;36.89
8320;BME280;4197;42.130;24.746;2022-08-02T05:51:51;99173.03;;;26.36;36.56
8320;BME280;4197;42.130;24.746;2022-08-02T05:54:34;99172.09;;;26.39;37.11
8320;BME280;4197;42.130;24.746;2022-08-02T05:57:10;99180.44;;;26.39;37.34
8320;BME280;4197;42.130;24.746;2022-08-02T05:59:52;99177.78;;;26.44;36.57
8320;BME280;4197;42.130;24.746;2022-08-02T06:02:29;99185.44;;;26.16;36.43
8320;BME280;4197;42.130;24.746;2022-08-02T06:05:03;99181.16;;;25.97;37.67
8320;BME280;4197;42.130;24.746;2022-08-02T06:07:35;99182.84;;;25.85;37.27
8320;BME280;4197;42.130;24.746;2022-08-02T06:10:06;99182.56;;;25.83;37.47
8320;BME280;4197;42.130;24.746;2022-08-02T06:12:43;99181.59;;;25.77;37.44
8320;BME280;4197;42.130;24.746;2022-08-02T06:15:18;99184.84;;;25.75;37.97
8320;BME280;4197;42.130;24.746;2022-08-02T06:17:48;99189.00;;;25.80;37.68
8320;BME280;4197;42.130;24.746;2022-08-02T06:20:20;99189.16;;;25.76;38.03
8320;BME280;4197;42.130;24.746;2022-08-02T06:22:50;99197.34;;;25.71;38.07
8320;BME280;4197;42.130;24.746;2022-08-02T06:25:21;99195.47;;;25.77;38.00
8320;BME280;4197;42.130;24.746;2022-08-02T06:28:12;99197.81;;;25.69;38.60
8320;BME280;4197;42.130;24.746;2022-08-02T06:30:44;99204.59;;;25.68;38.25
8320;BME280;4197;42.130;24.746;2022-08-02T06:33:13;99197.50;;;25.76;38.54
8320;BME280;4197;42.130;24.746;2022-08-02T06:35:45;99204.94;;;25.89;38.65
8320;BME280;4197;42.130;24.746;2022-08-02T06:38:21;99203.66;;;25.99;38.01
8320;BME280;4197;42.130;24.746;2022-08-02T06:40:55;99204.75;;;26.01;37.79
8320;BME280;4197;42.130;24.746;2022-08-02T06:43:30;99211.53;;;26.10;37.90
8320;BME280;4197;42.130;24.746;2022-08-02T06:46:07;99202.25;;;26.13;38.31
8320;BME280;4197;42.130;24.746;2022-08-02T06:48:56;99197.47;;;26.22;37.29
8320;BME280;4197;42.130;24.746;2022-08-02T06:51:24;99201.47;;;26.21;37.50
8320;BME280;4197;42.130;24.746;2022-08-02T06:53:53;99191.63;;;26.11;38.12
8320;BME280;4197;42.130;24.746;2022-08-02T06:56:21;99198.22;;;26.23;37.56
8320;BME280;4197;42.130;24.746;2022-08-02T06:59:04;99196.53;;;26.25;37.62
8320;BME280;4197;42.130;24.746;2022-08-02T07:01:53;99194.84;;;26.19;37.04
8320;BME280;4197;42.130;24.746;2022-08-02T07:04:28;99199.34;;;26.07;38.14
8320;BME280;4197;42.130;24.746;2022-08-02T07:07:00;99186.66;;;26.15;38.17
8320;BME280;4197;42.130;24.746;2022-08-02T07:09:31;99190.03;;;26.29;37.97
8320;BME280;4197;42.130;24.746;2022-08-02T07:12:00;99203.44;;;26.39;37.22
8320;BME280;4197;42.130;24.746;2022-08-02T07:14:28;99198.78;;;26.45;36.78
8320;BME280;4197;42.130;24.746;2022-08-02T07:17:08;99189.97;;;26.47;37.01
8320;BME280;4197;42.130;24.746;2022-08-02T07:19:40;99197.69;;;26.52;37.28
8320;BME280;4197;42.130;24.746;2022-08-02T07:22:11;99187.13;;;26.65;37.23
8320;BME280;4197;42.130;24.746;2022-08-02T07:24:40;99196.53;;;26.77;36.74
8320;BME280;4197;42.130;24.746;2022-08-02T07:27:08;99194.03;;;26.79;36.03
8320;BME280;4197;42.130;24.746;2022-08-02T07:29:38;99195.09;;;26.82;36.10
8320;BME280;4197;42.130;24.746;2022-08-02T07:32:14;99198.06;;;26.78;36.74
8320;BME280;4197;42.130;24.746;2022-08-02T07:34:43;99190.78;;;26.81;36.38
8320;BME280;4197;42.130;24.746;2022-08-02T07:37:20;99186.41;;;26.89;36.24
8320;BME280;4197;42.130;24.746;2022-08-02T07:40:10;99182.56;;;26.86;35.95
8320;BME280;4197;42.130;24.746;2022-08-02T07:42:46;99186.97;;;27.02;36.33
8320;BME280;4197;42.130;24.746;2022-08-02T07:45:14;99188.31;;;27.16;35.96
8320;BME280;4197;42.130;24.746;2022-08-02T07:47:44;99192.13;;;27.19;35.37
8320;BME280;4197;42.130;24.746;2022-08-02T07:50:14;99193.69;;;27.20;35.45
8320;BME280;4197;42.130;24.746;2022-08-02T07:52:43;99190.25;;;27.25;35.82
8320;BME280;4197;42.130;24.746;2022-08-02T07:55:14;99189.31;;;27.28;35.88
8320;BME280;4197;42.130;24.746;2022-08-02T07:57:44;99189.00;;;27.26;36.06
8320;BME280;4197;42.130;24.746;2022-08-02T08:00:13;99193.56;;;27.38;35.88
8320;BME280;4197;42.130;24.746;2022-08-02T08:02:45;99191.22;;;27.61;34.96
8320;BME280;4197;42.130;24.746;2022-08-02T08:05:13;99193.91;;;27.55;35.05
8320;BME280;4197;42.130;24.746;2022-08-02T08:07:42;99188.22;;;27.49;35.09
8320;BME280;4197;42.130;24.746;2022-08-02T08:10:10;99192.34;;;27.54;35.17
8320;BME280;4197;42.130;24.746;2022-08-02T08:12:38;99196.09;;;27.66;35.19
8320;BME280;4197;42.130;24.746;2022-08-02T08:15:08;99202.06;;;27.58;35.00
8320;BME280;4197;42.130;24.746;2022-08-02T08:17:36;99194.59;;;27.65;35.03
8320;BME280;4197;42.130;24.746;2022-08-02T08:20:08;99197.88;;;27.78;34.43
8320;BME280;4197;42.130;24.746;2022-08-02T08:22:41;99192.00;;;27.76;36.01
8320;BME280;4197;42.130;24.746;2022-08-02T08:25:09;99202.72;;;27.92;35.21
8320;BME280;4197;42.130;24.746;2022-08-02T08:27:46;99198.56;;;27.88;34.83
8320;BME280;4197;42.130;24.746;2022-08-02T08:30:15;99196.94;;;27.96;34.06
8320;BME280;4197;42.130;24.746;2022-08-02T08:32:43;99201.75;;;27.95;34.29
8320;BME280;4197;42.130;24.746;2022-08-02T08:35:14;99206.78;;;27.91;33.73
8320;BME280;4197;42.130;24.746;2022-08-02T08:37:43;99199.84;;;27.87;33.55
8320;BME280;4197;42.130;24.746;2022-08-02T08:40:12;99209.72;;;27.88;33.51
8320;BME280;4197;42.130;24.746;2022-08-02T08:42:46;99208.50;;;27.89;34.33
8320;BME280;4197;42.130;24.746;2022-08-02T08:45:14;99199.47;;;28.09;34.10
8320;BME280;4197;42.130;24.746;2022-08-02T08:47:49;99203.13;;;28.15;33.64
8320;BME280;4197;42.130;24.746;2022-08-02T08:50:22;99198.72;;;28.08;33.88
8320;BME280;4197;42.130;24.746;2022-08-02T08:52:56;99189.28;;;27.91;34.01
8320;BME280;4197;42.130;24.746;2022-08-02T08:55:29;99198.59;;;28.02;34.75
8320;BME280;4197;42.130;24.746;2022-08-02T08:57:58;99193.97;;;28.29;33.74
8320;BME280;4197;42.130;24.746;2022-08-02T09:00:29;99184.25;;;28.54;33.14
8320;BME280;4197;42.130;24.746;2022-08-02T09:02:58;99191.19;;;28.59;32.64
8320;BME280;4197;42.130;24.746;2022-08-02T09:05:27;99188.69;;;28.61;33.17
8320;BME280;4197;42.130;24.746;2022-08-02T09:07:56;99183.97;;;28.67;32.91
8320;BME280;4197;42.130;24.746;2022-08-02T09:10:32;99179.50;;;28.75;32.64
8320;BME280;4197;42.130;24.746;2022-08-02T09:13:09;99180.94;;;28.85;32.52
8320;BME280;4197;42.130;24.746;2022-08-02T09:15:59;99174.09;;;28.86;33.27
8320;BME280;4197;42.130;24.746;2022-08-02T09:18:40;99171.28;;;28.66;33.06
8320;BME280;4197;42.130;24.746;2022-08-02T09:21:13;99168.72;;;28.83;32.41
8320;BME280;4197;42.130;24.746;2022-08-02T09:23:45;99173.63;;;28.88;33.04
8320;BME280;4197;42.130;24.746;2022-08-02T09:26:15;99172.03;;;29.02;32.47
8320;BME280;4197;42.130;24.746;2022-08-02T09:28:45;99166.91;;;29.00;32.49
8320;BME280;4197;42.130;24.746;2022-08-02T09:31:17;99167.75;;;28.86;32.89
8320;BME280;4197;42.130;24.746;2022-08-02T09:33:51;99161.03;;;28.98;32.57
8320;BME280;4197;42.130;24.746;2022-08-02T09:36:22;99170.25;;;29.19;32.38
8320;BME280;4197;42.130;24.746;2022-08-02T09:38:55;99160.72;;;29.31;32.55
8320;BME280;4197;42.130;24.746;2022-08-02T09:41:25;99169.25;;;29.43;31.96
8320;BME280;4197;42.130;24.746;2022-08-02T09:43:53;99162.41;;;29.44;31.56
8320;BME280;4197;42.130;24.746;2022-08-02T09:46:33;99162.81;;;29.37;31.56
8320;BME280;4197;42.130;24.746;2022-08-02T09:49:06;99149.69;;;29.43;32.23
8320;BME280;4197;42.130;24.746;2022-08-02T09:51:38;99158.00;;;29.57;32.04
8320;BME280;4197;42.130;24.746;2022-08-02T09:54:09;99155.13;;;29.52;32.02
8320;BME280;4197;42.130;24.746;2022-08-02T09:56:41;99157.94;;;29.52;32.33
8320;BME280;4197;42.130;24.746;2022-08-02T09:59:10;99162.16;;;29.21;32.10
8320;BME280;4197;42.130;24.746;2022-08-02T10:01:39;99164.44;;;28.87;32.13
8320;BME280;4197;42.130;24.746;2022-08-02T10:04:25;99158.94;;;28.73;32.75
8320;BME280;4197;42.130;24.746;2022-08-02T10:06:55;99151.53;;;29.05;32.33
8320;BME280;4197;42.130;24.746;2022-08-02T10:09:26;99159.13;;;29.25;32.71
8320;BME280;4197;42.130;24.746;2022-08-02T10:11:55;99159.13;;;29.25;31.92
8320;BME280;4197;42.130;24.746;2022-08-02T10:14:25;99152.75;;;29.45;31.93
8320;BME280;4197;42.130;24.746;2022-08-02T10:16:56;99153.72;;;29.62;32.04
8320;BME280;4197;42.130;24.746;2022-08-02T10:19:25;99143.50;;;29.59;31.61
8320;BME280;4197;42.130;24.746;2022-08-02T10:22:15;99145.63;;;29.64;31.18
8320;BME280;4197;42.130;24.746;2022-08-02T10:24:46;99155.69;;;29.76;31.33
8320;BME280;4197;42.130;24.746;2022-08-02T10:27:17;99144.44;;;29.97;31.17
8320;BME280;4197;42.130;24.746;2022-08-02T10:29:47;99142.25;;;30.12;31.37
8320;BME280;4197;42.130;24.746;2022-08-02T10:32:24;99142.81;;;30.48;30.73
8320;BME280;4197;42.130;24.746;2022-08-02T10:34:57;99152.66;;;30.38;30.27
8320;BME280;4197;42.130;24.746;2022-08-02T10:37:51;99146.09;;;30.41;31.02
8320;BME280;4197;42.130;24.746;2022-08-02T10:40:20;99141.41;;;30.70;30.58
8320;BME280;4197;42.130;24.746;2022-08-02T10:42:55;99147.75;;;30.64;30.82
8320;BME280;4197;42.130;24.746;2022-08-02T10:45:26;99155.78;;;30.51;31.06
8320;BME280;4197;42.130;24.746;2022-08-02T10:48:01;99149.69;;;30.47;30.90
8320;BME280;4197;42.130;24.746;2022-08-02T10:50:51;99145.44;;;30.26;30.64
8320;BME280;4197;42.130;24.746;2022-08-02T10:53:23;99146.94;;;29.95;31.06
8320;BME280;4197;42.130;24.746;2022-08-02T10:55:52;99144.75;;;30.05;31.21
8320;BME280;4197;42.130;24.746;2022-08-02T10:58:22;99141.00;;;30.13;30.88
8320;BME280;4197;42.130;24.746;2022-08-02T11:00:55;99137.06;;;30.26;30.18
8320;BME280;4197;42.130;24.746;2022-08-02T11:03:36;99142.81;;;30.16;30.11
8320;BME280;4197;42.130;24.746;2022-08-02T11:06:08;99140.09;;;29.96;30.72
8320;BME280;4197;42.130;24.746;2022-08-02T11:09:24;99138.19;;;30.39;31.00
8320;BME280;4197;42.130;24.746;2022-08-02T11:12:00;99136.66;;;30.38;30.40
8320;BME280;4197;42.130;24.746;2022-08-02T11:14:31;99133.91;;;30.18;30.54
8320;BME280;4197;42.130;24.746;2022-08-02T11:17:20;99132.72;;;29.98;30.81
8320;BME280;4197;42.130;24.746;2022-08-02T11:20:15;99110.94;;;30.02;30.93
8320;BME280;4197;42.130;24.746;2022-08-02T11:22:46;99103.50;;;30.26;30.54
8320;BME280;4197;42.130;24.746;2022-08-02T11:25:32;99112.91;;;30.28;31.34
8320;BME280;4197;42.130;24.746;2022-08-02T11:28:21;99112.81;;;30.49;31.96
8320;BME280;4197;42.130;24.746;2022-08-02T11:30:59;99109.97;;;30.80;30.68
8320;BME280;4197;42.130;24.746;2022-08-02T11:33:32;99113.66;;;30.60;30.61
8320;BME280;4197;42.130;24.746;2022-08-02T11:36:05;99110.41;;;30.73;30.66
8320;BME280;4197;42.130;24.746;2022-08-02T11:38:34;99098.34;;;30.99;30.30
8320;BME280;4197;42.130;24.746;2022-08-02T11:41:03;99105.78;;;31.13;30.17
8320;BME280;4197;42.130;24.746;2022-08-02T11:43:36;99109.91;;;31.29;29.49
8320;BME280;4197;42.130;24.746;2022-08-02T11:46:12;99104.38;;;31.40;28.87
8320;BME280;4197;42.130;24.746;2022-08-02T11:48:41;99106.16;;;31.49;28.22
8320;BME280;4197;42.130;24.746;2022-08-02T11:51:12;99103.28;;;31.26;28.81
8320;BME280;4197;42.130;24.746;2022-08-02T11:53:45;99111.56;;;30.98;28.89
8320;BME280;4197;42.130;24.746;2022-08-02T11:56:17;99106.44;;;30.91;28.69
8320;BME280;4197;42.130;24.746;2022-08-02T11:59:05;99112.50;;;30.84;29.30
8320;BME280;4197;42.130;24.746;2022-08-02T12:01:35;99105.91;;;30.87;28.94
8320;BME280;4197;42.130;24.746;2022-08-02T12:04:16;99108.28;;;31.05;28.40
8320;BME280;4197;42.130;24.746;2022-08-02T12:06:58;99107.28;;;31.08;28.75
8320;BME280;4197;42.130;24.746;2022-08-02T12:09:30;99103.59;;;30.80;29.29
8320;BME280;4197;42.130;24.746;2022-08-02T12:12:07;99105.31;;;30.72;29.46
8320;BME280;4197;42.130;24.746;2022-08-02T12:14:42;99106.94;;;30.89;29.45
8320;BME280;4197;42.130;24.746;2022-08-02T12:17:10;99101.63;;;30.97;28.95
8320;BME280;4197;42.130;24.746;2022-08-02T12:19:56;99094.09;;;31.26;28.77
8320;BME280;4197;42.130;24.746;2022-08-02T12:22:26;99101.25;;;31.27;28.81
8320;BME280;4197;42.130;24.746;2022-08-02T12:24:56;99101.16;;;31.04;28.58
8320;BME280;4197;42.130;24.746;2022-08-02T12:27:33;99097.34;;;31.02;28.71
8320;BME280;4197;42.130;24.746;2022-08-02T12:30:06;99103.22;;;31.09;29.01
8320;BME280;4197;42.130;24.746;2022-08-02T12:32:35;99094.84;;;31.21;28.71
8320;BME280;4197;42.130;24.746;2022-08-02T12:35:07;99093.03;;;31.18;29.21
8320;BME280;4197;42.130;24.746;2022-08-02T12:37:38;99089.31;;;31.38;29.01
8320;BME280;4197;42.130;24.746;2022-08-02T12:40:23;99088.09;;;31.67;29.14
8320;BME280;4197;42.130;24.746;2022-08-02T12:42:56;99089.16;;;31.97;28.49
8320;BME280;4197;42.130;24.746;2022-08-02T12:45:25;99080.72;;;32.20;28.63
8320;BME280;4197;42.130;24.746;2022-08-02T12:48:08;99089.63;;;32.30;28.50
8320;BME280;4197;42.130;24.746;2022-08-02T12:50:37;99088.63;;;32.27;27.65
8320;BME280;4197;42.130;24.746;2022-08-02T12:53:08;99088.63;;;32.21;28.12
8320;BME280;4197;42.130;24.746;2022-08-02T12:55:47;99092.69;;;32.09;28.41
8320;BME280;4197;42.130;24.746;2022-08-02T12:58:30;99085.06;;;32.10;27.98
8320;BME280;4197;42.130;24.746;2022-08-02T13:01:19;99090.44;;;31.96;28.79
8320;BME280;4197;42.130;24.746;2022-08-02T13:03:48;99083.78;;;31.94;27.88
8320;BME280;4197;42.130;24.746;2022-08-02T13:06:37;99087.56;;;31.57;28.37
8320;BME280;4197;42.130;24.746;2022-08-02T13:09:12;99085.75;;;31.37;28.63
8320;BME280;4197;42.130;24.746;2022-08-02T13:11:42;99085.69;;;31.31;28.85
8320;BME280;4197;42.130;24.746;2022-08-02T13:14:12;99083.47;;;31.41;28.36
8320;BME280;4197;42.130;24.746;2022-08-02T13:16:41;99080.63;;;31.36;28.65
8320;BME280;4197;42.130;24.746;2022-08-02T13:19:10;99082.91;;;31.31;28.69
8320;BME280;4197;42.130;24.746;2022-08-02T13:21:42;99079.84;;;31.18;28.39
8320;BME280;4197;42.130;24.746;2022-08-02T13:24:32;99078.09;;;31.32;28.50
8320;BME280;4197;42.130;24.746;2022-08-02T13:27:20;99081.94;;;31.40;28.32
8320;BME280;4197;42.130;24.746;2022-08-02T13:29:51;99084.75;;;31.46;28.34
8320;BME280;4197;42.130;24.746;2022-08-02T13:32:20;99078.91;;;31.72;28.60
8320;BME280;4197;42.130;24.746;2022-08-02T13:34:48;99082.78;;;31.97;27.88
8320;BME280;4197;42.130;24.746;2022-08-02T13:37:17;99089.66;;;32.13;27.40
8320;BME280;4197;42.130;24.746;2022-08-02T13:39:45;99079.47;;;32.15;27.14
8320;BME280;4197;42.130;24.746;2022-08-02T13:42:33;99082.78;;;32.03;27.70
8320;BME280;4197;42.130;24.746;2022-08-02T13:45:04;99081.75;;;31.94;28.71